Time;durP1;ratioP1;P1;durP2;ratioP2;P2;SDS_P1;SDS_P2;PMS_P1;PMS_P2;Temp;Humidity;BMP_temperature;BMP_pressure;BME280_temperature;BME280_humidity;BME280_pressure;Samples;Min_cycle;Max_cycle;Signal;HPM_P1;HPM_P2
2023/07/11 00:01:17;;;;;;;2.15;0.32;;;19.00;99.90;;;;;;5047464;28;20092;-72
2023/07/11 00:03:42;;;;;;;3.35;0.40;;;19.00;99.90;;;;;;5028851;28;20065;-71
2023/07/11 00:06:16;;;;;;;1.13;0.40;;;19.00;99.90;;;;;;5029617;28;20063;-72
2023/07/11 00:08:41;;;;;;;2.42;0.70;;;19.00;99.90;;;;;;5028902;28;20487;-69
2023/07/11 00:11:11;;;;;;;2.63;0.32;;;19.00;99.90;;;;;;5029741;28;20086;-71
2023/07/11 00:13:39;;;;;;;3.33;0.40;;;19.00;99.90;;;;;;5046687;28;20021;-71
2023/07/11 00:16:08;;;;;;;1.63;0.30;;;19.00;99.90;;;;;;5029172;28;20041;-70
2023/07/11 00:18:34;;;;;;;6.50;0.40;;;19.00;99.90;;;;;;5029075;28;20033;-71
2023/07/11 00:21:00;;;;;;;1.33;0.40;;;19.00;99.90;;;;;;5030414;28;20052;-71
2023/07/11 00:23:26;;;;;;;0.82;0.20;;;19.00;99.90;;;;;;5049855;28;20106;-71
2023/07/11 00:25:52;;;;;;;2.17;0.30;;;19.00;99.90;;;;;;5050775;28;20033;-71
2023/07/11 00:28:19;;;;;;;1.85;0.28;;;19.00;99.90;;;;;;5035611;28;20051;-71
2023/07/11 00:30:44;;;;;;;1.77;0.45;;;19.00;99.90;;;;;;5050085;28;20032;-71
2023/07/11 00:33:10;;;;;;;2.80;0.43;;;19.00;99.90;;;;;;5047013;28;20041;-71
2023/07/11 00:35:43;;;;;;;1.02;0.20;;;19.00;99.90;;;;;;5046136;28;20025;-73
2023/07/11 00:38:08;;;;;;;0.55;0.17;;;19.00;99.90;;;;;;5029497;28;20376;-73
2023/07/11 00:40:43;;;;;;;3.10;0.20;;;18.90;99.90;;;;;;5046477;28;20036;-70
2023/07/11 00:43:11;;;;;;;1.08;0.28;;;18.90;99.90;;;;;;5029301;28;20045;-71
2023/07/11 00:45:49;;;;;;;1.73;0.35;;;18.90;99.90;;;;;;5028241;28;20037;-70
2023/07/11 00:48:17;;;;;;;1.05;0.40;;;18.90;99.90;;;;;;5047418;28;20041;-72
2023/07/11 00:50:44;;;;;;;1.15;0.20;;;18.90;99.90;;;;;;5028790;28;20033;-72
2023/07/11 00:53:11;;;;;;;1.38;0.22;;;18.80;99.90;;;;;;5029436;28;20466;-72
2023/07/11 00:55:36;;;;;;;0.95;0.20;;;18.80;99.90;;;;;;5045590;28;20121;-71
2023/07/11 00:58:02;;;;;;;1.08;0.32;;;18.70;99.90;;;;;;5047135;28;20120;-71
2023/07/11 01:00:28;;;;;;;0.80;0.20;;;18.70;99.90;;;;;;5047233;28;20037;-71
2023/07/11 01:02:54;;;;;;;1.58;0.43;;;18.70;99.90;;;;;;5026623;28;20099;-70
2023/07/11 01:05:19;;;;;;;0.55;0.20;;;18.70;99.90;;;;;;5027984;28;20049;-72
2023/07/11 01:07:45;;;;;;;1.00;0.40;;;18.60;99.90;;;;;;5044682;28;20098;-70
2023/07/11 01:10:10;;;;;;;1.38;0.40;;;18.60;99.90;;;;;;5028758;28;20083;-71
2023/07/11 01:12:36;;;;;;;3.33;0.45;;;18.60;99.90;;;;;;5045594;28;20499;-71
2023/07/11 01:15:03;;;;;;;1.15;0.40;;;18.60;99.90;;;;;;5045947;28;20075;-72
2023/07/11 01:17:35;;;;;;;1.00;0.20;;;18.60;99.90;;;;;;5046390;28;20029;-71
2023/07/11 01:20:05;;;;;;;4.82;1.17;;;18.60;99.90;;;;;;5046064;28;20654;-70
2023/07/11 01:22:32;;;;;;;1.43;0.27;;;18.60;99.90;;;;;;5027793;28;20025;-71
2023/07/11 01:25:11;;;;;;;1.38;0.25;;;18.60;99.90;;;;;;5028929;28;20068;-70
2023/07/11 01:27:39;;;;;;;3.75;0.30;;;18.60;99.90;;;;;;5028088;28;20593;-73
2023/07/11 01:30:06;;;;;;;3.20;0.52;;;18.60;99.90;;;;;;5046766;28;20053;-72
2023/07/11 01:32:32;;;;;;;1.60;0.38;;;18.70;99.90;;;;;;5045734;28;20033;-71
2023/07/11 01:34:58;;;;;;;2.70;0.82;;;18.60;99.90;;;;;;5046703;28;20024;-71
2023/07/11 01:37:23;;;;;;;1.52;0.30;;;18.60;99.90;;;;;;5028545;28;20491;-73
2023/07/11 01:39:49;;;;;;;1.23;0.40;;;18.60;99.90;;;;;;5029399;28;20122;-72
2023/07/11 01:42:15;;;;;;;1.42;0.60;;;18.50;99.90;;;;;;5032153;28;20427;-71
2023/07/11 01:44:40;;;;;;;2.22;0.50;;;18.50;99.90;;;;;;5049253;28;20125;-72
2023/07/11 01:47:07;;;;;;;1.48;0.20;;;18.50;99.90;;;;;;5050139;28;20040;-73
2023/07/11 01:49:33;;;;;;;0.95;0.30;;;18.50;99.90;;;;;;5031239;28;20041;-71
2023/07/11 01:52:19;;;;;;;3.35;0.55;;;18.60;99.90;;;;;;5032179;28;20090;-71
2023/07/11 01:54:46;;;;;;;1.58;0.22;;;18.70;99.90;;;;;;5049316;28;20627;-71
2023/07/11 01:57:12;;;;;;;0.70;0.20;;;18.70;99.90;;;;;;5049948;28;20060;-72
2023/07/11 01:59:38;;;;;;;1.67;0.30;;;18.70;99.90;;;;;;5048900;28;20384;-71
2023/07/11 02:02:04;;;;;;;2.15;0.20;;;18.80;99.90;;;;;;5032003;28;20041;-71
2023/07/11 02:04:31;;;;;;;6.90;0.85;;;18.80;99.90;;;;;;5048937;28;20037;-74
2023/07/11 02:06:57;;;;;;;1.70;0.30;;;18.80;99.90;;;;;;5049611;28;20129;-72
2023/07/11 02:09:23;;;;;;;2.97;0.30;;;18.90;99.90;;;;;;5031714;28;20186;-71
2023/07/11 02:11:49;;;;;;;2.15;0.35;;;18.80;99.90;;;;;;5048504;28;20056;-72
2023/07/11 02:14:18;;;;;;;1.13;0.60;;;18.80;99.90;;;;;;5031445;28;20025;-71
2023/07/11 02:16:44;;;;;;;0.80;0.53;;;18.80;99.90;;;;;;5030823;28;20029;-71
2023/07/11 02:19:15;;;;;;;0.68;0.30;;;18.80;99.90;;;;;;5049668;28;20281;-71
2023/07/11 02:21:41;;;;;;;1.23;0.30;;;18.80;99.90;;;;;;5030709;28;20068;-71
2023/07/11 02:24:08;;;;;;;4.57;0.47;;;18.80;99.90;;;;;;5062147;28;20052;-71
2023/07/11 02:26:34;;;;;;;3.85;0.70;;;18.80;99.90;;;;;;5050397;28;20395;-71
2023/07/11 02:29:00;;;;;;;1.48;0.17;;;18.70;99.90;;;;;;5063141;28;20029;-71
2023/07/11 02:31:26;;;;;;;1.55;0.30;;;18.70;99.90;;;;;;5049374;28;20044;-71
2023/07/11 02:33:53;;;;;;;2.50;0.65;;;18.70;99.90;;;;;;5047833;28;20025;-71
2023/07/11 02:36:19;;;;;;;3.30;0.40;;;18.60;99.90;;;;;;5031472;28;20036;-73
2023/07/11 02:38:44;;;;;;;3.60;0.80;;;18.70;99.90;;;;;;5030114;28;20041;-71
2023/07/11 02:41:10;;;;;;;3.38;0.35;;;18.60;99.90;;;;;;5049110;28;20037;-71
2023/07/11 02:43:35;;;;;;;2.35;0.40;;;18.60;99.90;;;;;;5030088;28;20033;-72
2023/07/11 02:46:01;;;;;;;2.80;0.40;;;18.60;99.90;;;;;;5031337;28;20021;-71
2023/07/11 02:48:27;;;;;;;1.48;0.20;;;18.60;99.90;;;;;;5048802;28;20183;-72
2023/07/11 02:50:52;;;;;;;1.77;0.20;;;18.50;99.90;;;;;;5029240;28;20039;-71
2023/07/11 02:53:18;;;;;;;1.08;0.20;;;18.40;99.90;;;;;;5031075;28;20521;-72
2023/07/11 02:55:44;;;;;;;1.50;0.30;;;18.40;99.90;;;;;;5030120;28;20067;-72
2023/07/11 02:58:10;;;;;;;5.97;0.63;;;18.30;99.90;;;;;;5048982;28;20091;-71
2023/07/11 03:00:36;;;;;;;3.22;1.10;;;18.30;99.90;;;;;;5030118;28;20025;-72
2023/07/11 03:03:02;;;;;;;0.77;0.30;;;18.20;99.90;;;;;;5030484;28;20037;-72
2023/07/11 03:05:28;;;;;;;0.88;0.30;;;18.20;99.90;;;;;;5047987;28;20582;-72
2023/07/11 03:07:54;;;;;;;1.88;0.35;;;18.10;99.90;;;;;;5047326;28;20040;-70
2023/07/11 03:10:19;;;;;;;1.23;0.40;;;18.10;99.90;;;;;;5048583;28;20712;-71
2023/07/11 03:12:45;;;;;;;2.35;0.30;;;18.10;99.90;;;;;;5029388;28;20129;-71
2023/07/11 03:15:10;;;;;;;1.65;0.25;;;18.00;99.90;;;;;;5047896;28;20506;-70
2023/07/11 03:17:36;;;;;;;4.47;0.60;;;17.90;99.90;;;;;;5029397;28;20103;-72
2023/07/11 03:20:02;;;;;;;4.88;0.60;;;18.00;99.90;;;;;;5030246;28;20041;-71
2023/07/11 03:22:28;;;;;;;2.25;0.80;;;18.00;99.90;;;;;;5029739;28;20067;-72
2023/07/11 03:24:54;;;;;;;1.58;0.45;;;18.10;99.90;;;;;;5048139;28;20037;-70
2023/07/11 03:27:19;;;;;;;2.03;0.40;;;18.00;99.90;;;;;;5048133;28;20047;-71
2023/07/11 03:29:45;;;;;;;10.40;0.60;;;18.00;99.90;;;;;;5046828;28;20037;-71
2023/07/11 03:32:11;;;;;;;3.15;0.68;;;18.10;99.90;;;;;;5030038;28;20048;-71
2023/07/11 03:34:37;;;;;;;2.28;0.47;;;18.10;99.90;;;;;;5046639;28;20041;-71
2023/07/11 03:37:03;;;;;;;2.35;0.70;;;18.20;99.90;;;;;;5029977;28;20468;-70
2023/07/11 03:39:29;;;;;;;2.90;0.55;;;18.20;99.90;;;;;;5029835;28;20065;-71
2023/07/11 03:41:55;;;;;;;1.77;0.50;;;18.20;99.90;;;;;;5028876;28;20036;-71
2023/07/11 03:44:20;;;;;;;3.50;1.08;;;18.10;99.90;;;;;;5029571;28;20052;-72
2023/07/11 03:46:46;;;;;;;1.75;0.40;;;18.10;99.90;;;;;;5028803;28;20430;-71
2023/07/11 03:49:11;;;;;;;2.15;0.40;;;18.10;99.90;;;;;;5030187;28;20048;-70
2023/07/11 03:51:37;;;;;;;4.32;0.52;;;18.00;99.90;;;;;;5029609;28;20445;-72
2023/07/11 03:54:03;;;;;;;1.95;0.20;;;18.00;99.90;;;;;;5029745;28;20106;-74
2023/07/11 03:56:28;;;;;;;4.22;0.70;;;18.00;99.90;;;;;;5047376;28;20522;-71
2023/07/11 03:58:54;;;;;;;1.83;0.52;;;18.00;99.90;;;;;;5050036;28;20033;-73
2023/07/11 04:01:20;;;;;;;1.75;0.30;;;18.00;99.90;;;;;;5047082;28;20063;-73
2023/07/11 04:03:46;;;;;;;3.17;0.38;;;18.00;99.90;;;;;;5028017;28;20029;-71
2023/07/11 04:06:12;;;;;;;3.30;0.93;;;18.00;99.90;;;;;;5029522;28;20033;-72
2023/07/11 04:08:37;;;;;;;2.38;0.68;;;17.90;99.90;;;;;;5028767;28;20033;-70
2023/07/11 04:11:03;;;;;;;2.80;0.70;;;18.00;99.90;;;;;;5047097;28;20491;-71
2023/07/11 04:13:29;;;;;;;2.58;0.73;;;18.00;99.90;;;;;;5047384;28;20037;-73
2023/07/11 04:15:55;;;;;;;2.65;0.63;;;18.00;99.90;;;;;;5028669;28;20057;-71
2023/07/11 04:18:20;;;;;;;6.65;1.10;;;18.10;99.90;;;;;;5046879;28;20357;-72
2023/07/11 04:20:46;;;;;;;2.85;0.93;;;18.10;99.90;;;;;;5046235;28;20033;-71
2023/07/11 04:23:14;;;;;;;6.65;0.90;;;18.20;99.90;;;;;;5029797;28;20151;-71
2023/07/11 04:25:40;;;;;;;4.43;0.90;;;18.20;99.90;;;;;;5046036;28;20029;-72
2023/07/11 04:28:05;;;;;;;4.10;0.93;;;18.30;99.90;;;;;;5046663;28;20040;-72
2023/07/11 04:30:32;;;;;;;6.75;1.33;;;18.30;99.90;;;;;;5027587;28;20032;-73
2023/07/11 04:32:57;;;;;;;3.75;1.08;;;18.40;99.90;;;;;;5046643;28;20056;-70
2023/07/11 04:35:23;;;;;;;3.70;1.23;;;18.40;99.90;;;;;;5028590;28;20072;-72
2023/07/11 04:37:49;;;;;;;4.00;1.63;;;18.40;99.90;;;;;;5028197;28;20040;-72
2023/07/11 04:40:15;;;;;;;2.85;1.30;;;18.40;99.90;;;;;;5046689;28;20449;-71
2023/07/11 04:42:40;;;;;;;4.85;1.70;;;18.50;99.90;;;;;;5045754;28;20041;-71
2023/07/11 04:45:08;;;;;;;4.35;1.45;;;18.50;99.90;;;;;;5040921;28;20049;-71
2023/07/11 04:47:34;;;;;;;5.47;1.70;;;18.50;99.90;;;;;;5023031;28;20056;-72
2023/07/11 04:49:59;;;;;;;9.93;1.90;;;18.50;99.90;;;;;;5045395;28;20910;-72
2023/07/11 04:52:26;;;;;;;5.20;1.88;;;18.60;99.90;;;;;;5045663;28;20052;-71
2023/07/11 04:54:52;;;;;;;9.02;2.25;;;18.60;99.90;;;;;;5043924;28;20076;-72
2023/07/11 04:57:18;;;;;;;9.45;1.90;;;18.60;99.90;;;;;;5024121;28;20087;-71
2023/07/11 04:59:43;;;;;;;6.00;1.95;;;18.60;99.90;;;;;;5044212;28;20051;-71
2023/07/11 05:02:09;;;;;;;6.20;2.15;;;18.70;99.90;;;;;;5044798;28;20075;-72
2023/07/11 05:04:34;;;;;;;8.02;2.47;;;18.70;99.90;;;;;;5026015;28;20116;-72
2023/07/11 05:07:00;;;;;;;11.82;2.20;;;18.70;99.90;;;;;;5026647;28;20053;-73
2023/07/11 05:09:30;;;;;;;10.80;2.53;;;18.80;99.90;;;;;;5042436;28;20117;-72
2023/07/11 05:11:55;;;;;;;9.48;2.28;;;18.90;99.90;;;;;;5026353;28;20521;-72
2023/07/11 05:14:21;;;;;;;7.70;1.90;;;19.00;99.90;;;;;;5047160;28;20029;-72
2023/07/11 05:16:47;;;;;;;5.97;2.55;;;19.00;99.90;;;;;;5043424;28;20052;-72
2023/07/11 05:19:12;;;;;;;14.05;3.03;;;19.10;99.90;;;;;;5048934;28;20132;-71
2023/07/11 05:21:38;;;;;;;5.53;3.05;;;19.10;99.90;;;;;;5048768;28;20067;-72
2023/07/11 05:24:04;;;;;;;10.75;2.45;;;19.20;99.90;;;;;;5031493;28;20415;-72
2023/07/11 05:26:30;;;;;;;7.28;2.65;;;19.10;99.90;;;;;;5048457;28;20040;-71
2023/07/11 05:28:55;;;;;;;8.35;2.55;;;19.10;99.90;;;;;;5042896;28;20033;-71
2023/07/11 05:31:21;;;;;;;7.25;2.50;;;19.20;99.90;;;;;;5030345;28;20036;-71
2023/07/11 05:33:47;;;;;;;3.88;2.25;;;19.20;99.90;;;;;;5043901;28;20037;-72
2023/07/11 05:36:23;;;;;;;13.10;3.80;;;19.30;99.90;;;;;;5026283;28;20033;-72
2023/07/11 05:38:49;;;;;;;6.97;2.65;;;19.40;99.90;;;;;;5045935;28;20029;-72
2023/07/11 05:41:14;;;;;;;7.95;2.50;;;19.50;99.90;;;;;;5027610;28;20418;-72
2023/07/11 05:43:40;;;;;;;6.63;2.28;;;19.60;99.90;;;;;;5029513;28;20105;-72
2023/07/11 05:46:06;;;;;;;6.30;2.03;;;19.70;99.90;;;;;;5048210;28;20029;-72
2023/07/11 05:48:32;;;;;;;9.80;2.20;;;19.80;99.90;;;;;;5047407;28;20033;-71
2023/07/11 05:51:07;;;;;;;3.30;1.70;;;20.10;99.90;;;;;;5030306;28;20037;-70
2023/07/11 05:53:33;;;;;;;5.10;2.50;;;20.50;99.90;;;;;;5026983;28;20044;-72
2023/07/11 05:55:58;;;;;;;6.53;1.60;;;21.00;99.90;;;;;;5029760;28;20032;-71
2023/07/11 05:58:29;;;;;;;8.55;1.95;;;21.50;99.90;;;;;;5050457;28;20128;-71
2023/07/11 06:00:56;;;;;;;4.22;2.00;;;22.10;99.90;;;;;;5028906;28;20125;-71
2023/07/11 06:03:23;;;;;;;4.18;2.33;;;22.50;99.90;;;;;;5047621;28;20036;-72
2023/07/11 06:05:49;;;;;;;6.35;1.98;;;22.80;99.90;;;;;;5042796;28;20457;-71
2023/07/11 06:08:15;;;;;;;4.65;1.45;;;23.00;99.90;;;;;;5046575;28;20029;-73
2023/07/11 06:10:42;;;;;;;3.58;1.67;;;23.10;99.90;;;;;;5027672;28;20065;-73
2023/07/11 06:13:09;;;;;;;3.78;1.80;;;23.10;99.90;;;;;;5030000;28;20459;-72
2023/07/11 06:15:34;;;;;;;6.22;2.33;;;23.20;99.90;;;;;;5046319;28;20146;-72
2023/07/11 06:18:00;;;;;;;4.93;2.00;;;23.20;99.90;;;;;;5030000;28;20033;-71
2023/07/11 06:20:26;;;;;;;8.60;2.05;;;23.30;99.90;;;;;;5047648;28;20033;-73
2023/07/11 06:22:53;;;;;;;6.65;1.92;;;23.30;99.90;;;;;;5048924;28;20044;-72
2023/07/11 06:25:19;;;;;;;5.75;2.53;;;23.20;99.90;;;;;;5029479;28;20041;-72
2023/07/11 06:27:45;;;;;;;4.53;2.20;;;23.20;99.90;;;;;;5028331;28;20033;-72
2023/07/11 06:30:11;;;;;;;8.32;2.72;;;23.20;99.90;;;;;;5026813;28;20114;-73
2023/07/11 06:32:36;;;;;;;3.58;1.90;;;23.10;99.90;;;;;;5046179;28;20029;-71
2023/07/11 06:35:02;;;;;;;3.97;1.33;;;23.10;99.90;;;;;;5047466;28;20124;-72
2023/07/11 06:37:27;;;;;;;7.32;1.70;;;23.20;99.90;;;;;;5047268;28;20035;-72
2023/07/11 06:39:53;;;;;;;7.03;1.60;;;23.30;99.90;;;;;;5046172;28;20064;-72
2023/07/11 06:42:19;;;;;;;4.70;1.48;;;23.40;99.90;;;;;;5043948;28;20041;-73
2023/07/11 06:44:44;;;;;;;4.72;1.20;;;23.60;99.90;;;;;;5046254;28;20060;-72
2023/07/11 06:47:10;;;;;;;5.60;1.15;;;23.70;99.90;;;;;;5029466;28;20183;-71
2023/07/11 06:49:35;;;;;;;3.83;1.35;;;24.10;99.90;;;;;;5047436;28;20078;-72
2023/07/11 06:52:02;;;;;;;6.10;1.27;;;24.50;99.20;;;;;;5030675;28;20048;-72
2023/07/11 06:54:28;;;;;;;4.72;1.58;;;24.80;99.30;;;;;;5048267;28;20036;-73
2023/07/11 06:56:54;;;;;;;3.55;1.08;;;25.40;98.00;;;;;;5028438;28;20037;-73
2023/07/11 06:59:21;;;;;;;3.10;1.05;;;26.00;98.10;;;;;;5029859;28;20041;-73
2023/07/11 07:01:47;;;;;;;7.60;1.75;;;26.10;97.20;;;;;;5024275;28;20037;-72
2023/07/11 07:04:16;;;;;;;7.07;1.38;;;26.00;96.80;;;;;;5043685;28;20032;-72
2023/07/11 07:06:45;;;;;;;5.45;1.33;;;26.00;96.70;;;;;;5045308;28;20025;-73
2023/07/11 07:09:11;;;;;;;8.15;1.42;;;26.00;97.20;;;;;;5041496;28;20037;-73
2023/07/11 07:11:38;;;;;;;2.65;0.80;;;26.30;96.10;;;;;;5025700;28;20544;-72
2023/07/11 07:14:09;;;;;;;2.08;0.80;;;26.70;96.90;;;;;;5044178;28;20044;-72
2023/07/11 07:16:36;;;;;;;3.63;1.00;;;27.40;95.70;;;;;;5043233;28;20033;-73
2023/07/11 07:19:04;;;;;;;2.88;1.00;;;28.20;95.20;;;;;;5045558;28;20171;-73
2023/07/11 07:21:30;;;;;;;3.53;1.38;;;28.90;94.70;;;;;;5043132;28;20388;-72
2023/07/11 07:23:56;;;;;;;5.50;1.55;;;29.50;93.50;;;;;;5023553;28;20033;-73
2023/07/11 07:26:22;;;;;;;5.63;1.92;;;30.30;93.50;;;;;;5045679;28;20040;-73
2023/07/11 07:28:48;;;;;;;1.80;1.13;;;30.90;92.80;;;;;;5024113;28;20040;-72
2023/07/11 07:31:14;;;;;;;6.43;1.73;;;31.60;91.20;;;;;;5040304;28;20120;-73
2023/07/11 07:33:40;;;;;;;8.35;2.30;;;32.50;89.70;;;;;;5045380;28;20033;-73
2023/07/11 07:36:08;;;;;;;7.82;1.77;;;33.40;88.00;;;;;;5028549;28;20033;-73
2023/07/11 07:38:35;;;;;;;3.28;1.70;;;33.90;87.40;;;;;;5043802;28;20029;-73
2023/07/11 07:41:03;;;;;;;4.95;1.65;;;34.60;86.40;;;;;;5043231;28;20544;-73
2023/07/11 07:43:30;;;;;;;5.57;1.70;;;35.30;83.50;;;;;;5046594;28;20044;-73
2023/07/11 07:45:58;;;;;;;4.15;1.77;;;35.70;81.30;;;;;;5046499;28;20552;-74
2023/07/11 07:48:25;;;;;;;3.65;1.75;;;35.90;80.70;;;;;;5042876;28;20120;-73
2023/07/11 07:50:50;;;;;;;5.97;2.00;;;35.80;79.20;;;;;;5045743;28;20123;-74
2023/07/11 07:53:17;;;;;;;6.60;2.35;;;36.10;79.30;;;;;;5045884;28;20159;-74
2023/07/11 07:55:42;;;;;;;5.20;2.05;;;36.30;78.40;;;;;;5045612;28;20033;-74
2023/07/11 07:58:10;;;;;;;4.15;2.38;;;36.70;78.10;;;;;;5045836;28;20055;-74
2023/07/11 08:00:36;;;;;;;4.47;1.85;;;36.70;77.10;;;;;;5027256;28;20029;-73
2023/07/11 08:03:02;;;;;;;5.32;2.22;;;36.40;76.60;;;;;;5046735;28;20090;-73
2023/07/11 08:05:28;;;;;;;5.75;1.55;;;36.10;76.10;;;;;;5046041;28;20037;-73
2023/07/11 08:07:53;;;;;;;5.25;2.00;;;35.90;75.20;;;;;;5027426;28;20047;-73
2023/07/11 08:10:19;;;;;;;6.47;1.70;;;35.80;75.90;;;;;;5046424;28;20241;-72
2023/07/11 08:12:45;;;;;;;6.00;1.95;;;35.50;76.30;;;;;;5045560;28;20056;-74
2023/07/11 08:15:11;;;;;;;6.18;1.77;;;35.10;75.70;;;;;;5028412;28;20110;-73
2023/07/11 08:17:38;;;;;;;5.43;2.38;;;34.60;76.40;;;;;;5045443;28;20021;-73
2023/07/11 08:20:07;;;;;;;5.30;1.88;;;33.90;78.40;;;;;;5045829;28;20086;-72
2023/07/11 08:22:33;;;;;;;7.28;1.60;;;33.40;77.30;;;;;;5045728;28;20047;-72
2023/07/11 08:24:58;;;;;;;2.92;1.65;;;32.50;79.20;;;;;;5031100;28;20037;-72
2023/07/11 08:27:24;;;;;;;6.50;1.58;;;31.90;80.40;;;;;;5046219;28;20041;-72
2023/07/11 08:29:50;;;;;;;3.60;1.20;;;31.50;80.60;;;;;;5041400;28;20043;-73
2023/07/11 08:32:18;;;;;;;3.83;0.93;;;30.90;82.20;;;;;;5028524;28;20044;-72
2023/07/11 08:34:43;;;;;;;8.00;0.82;;;30.60;83.60;;;;;;5045338;28;20510;-72
2023/07/11 08:37:09;;;;;;;4.65;1.13;;;30.20;83.80;;;;;;5047006;28;20048;-70
2023/07/11 08:39:37;;;;;;;9.60;1.42;;;30.00;84.60;;;;;;5045386;28;20033;-71
2023/07/11 08:42:12;;;;;;;6.35;1.20;;;29.90;85.30;;;;;;5046216;28;20032;-71
2023/07/11 08:45:01;;;;;;;4.57;1.40;;;29.70;85.20;;;;;;5045554;28;20029;-71
2023/07/11 08:47:32;;;;;;;;;;;29.70;85.70;;;;;;5039746;28;20033;-71
2023/07/11 08:50:04;;;;;;;4.50;1.08;;;29.60;86.60;;;;;;5029990;28;19966;-71
2023/07/11 08:52:32;;;;;;;7.38;1.30;;;29.40;87.90;;;;;;5032811;28;20045;-71
2023/07/11 08:55:22;;;;;;;10.70;0.88;;;29.20;85.40;;;;;;5050107;28;20102;-71
2023/07/11 08:57:50;;;;;;;;;;;29.10;86.30;;;;;;5049307;28;20064;-71
2023/07/11 09:00:17;;;;;;;2.63;0.70;;;29.10;86.50;;;;;;5032279;28;19923;-72
2023/07/11 09:02:52;;;;;;;3.88;0.77;;;29.10;86.80;;;;;;5049010;28;20037;-71
2023/07/11 09:05:34;;;;;;;4.00;1.00;;;29.10;86.50;;;;;;5031729;28;20037;-72
2023/07/11 09:07:59;;;;;;;3.80;0.85;;;29.10;85.20;;;;;;5045555;28;20060;-72
2023/07/11 09:10:42;;;;;;;5.10;1.25;;;29.10;87.30;;;;;;5048614;28;20087;-72
2023/07/11 09:13:15;;;;;;;2.90;0.82;;;29.00;86.60;;;;;;5029206;28;20037;-72
2023/07/11 09:16:25;;;;;;;1.92;0.75;;;28.90;85.00;;;;;;5029418;28;20045;-73
2023/07/11 09:19:18;;;;;;;5.70;1.00;;;28.80;86.00;;;;;;5022304;28;22342;-71
2023/07/11 09:21:59;;;;;;;3.10;0.98;;;28.90;86.40;;;;;;5026037;28;20120;-70
2023/07/11 09:24:43;;;;;;;3.22;0.80;;;28.80;87.80;;;;;;5022913;28;20025;-70
2023/07/11 09:27:32;;;;;;;2.85;0.93;;;28.90;86.90;;;;;;5022080;28;20036;-70
2023/07/11 09:29:58;;;;;;;4.78;0.95;;;29.00;87.10;;;;;;5024642;28;20029;-71
2023/07/11 09:32:33;;;;;;;3.35;0.52;;;29.00;88.60;;;;;;5048062;28;20090;-71
2023/07/11 09:35:22;;;;;;;3.08;0.63;;;28.90;86.70;;;;;;5040520;28;20657;-70
2023/07/11 09:37:51;;;;;;;7.38;0.60;;;28.80;87.60;;;;;;5025205;28;20029;-70
2023/07/11 09:40:31;;;;;;;4.30;1.00;;;28.90;88.60;;;;;;5044818;28;20029;-70
2023/07/11 09:42:56;;;;;;;4.20;1.23;;;28.90;88.30;;;;;;5022797;28;20568;-72
2023/07/11 09:45:34;;;;;;;2.50;0.80;;;28.90;87.50;;;;;;5024182;28;20060;-70
2023/07/11 09:48:18;;;;;;;2.67;0.93;;;28.90;88.50;;;;;;5033635;28;20095;-71
2023/07/11 09:51:01;;;;;;;2.75;0.70;;;29.10;86.40;;;;;;5042653;28;20038;-71
2023/07/11 09:53:29;;;;;;;5.35;0.98;;;29.20;86.70;;;;;;5043654;28;20508;-72
2023/07/11 09:55:59;;;;;;;4.97;0.88;;;29.20;85.90;;;;;;5049819;28;20141;-71
2023/07/11 09:58:29;;;;;;;5.32;0.95;;;29.20;86.00;;;;;;5051980;28;20128;-73
2023/07/11 10:01:00;;;;;;;3.30;0.80;;;29.50;87.00;;;;;;5026172;28;20044;-71
2023/07/11 10:03:27;;;;;;;2.30;0.60;;;29.60;86.70;;;;;;5041310;28;20063;-73
2023/07/11 10:05:53;;;;;;;3.85;0.93;;;29.70;84.10;;;;;;5041651;28;20136;-70
2023/07/11 10:08:22;;;;;;;2.80;0.75;;;29.80;84.30;;;;;;5045494;28;20033;-71
2023/07/11 10:10:53;;;;;;;2.78;0.82;;;29.90;86.00;;;;;;5043463;28;20041;-71
2023/07/11 10:13:20;;;;;;;4.65;1.45;;;30.00;86.00;;;;;;5042768;28;20043;-72
2023/07/11 10:15:57;;;;;;;4.50;1.48;;;30.00;85.30;;;;;;5025511;28;20025;-71
2023/07/11 10:18:25;;;;;;;2.80;0.75;;;30.10;85.70;;;;;;5025107;28;20033;-70
2023/07/11 10:20:55;;;;;;;7.13;0.85;;;30.00;84.40;;;;;;5023069;28;20180;-72
2023/07/11 10:23:24;;;;;;;3.88;0.88;;;29.90;86.00;;;;;;5028984;28;20501;-70
2023/07/11 10:26:09;;;;;;;5.38;0.82;;;29.80;85.60;;;;;;5022675;28;20570;-71
2023/07/11 10:28:39;;;;;;;1.92;0.88;;;29.70;84.70;;;;;;5018667;28;20095;-70
2023/07/11 10:31:13;;;;;;;4.25;0.90;;;29.50;85.30;;;;;;5046961;28;20116;-71
2023/07/11 10:34:13;;;;;;;3.67;1.00;;;29.40;85.20;;;;;;5040590;28;20064;-71
2023/07/11 10:36:46;;;;;;;2.58;1.20;;;29.30;85.40;;;;;;5010908;28;20041;-73
2023/07/11 10:39:42;;;;;;;5.22;0.98;;;29.20;86.30;;;;;;5041089;28;20041;-72
2023/07/11 10:42:28;;;;;;;1.95;0.68;;;29.30;86.60;;;;;;5022088;28;20049;-72
2023/07/11 10:45:17;;;;;;;2.45;0.90;;;29.10;85.10;;;;;;5035461;28;20091;-72
2023/07/11 10:48:01;;;;;;;3.42;0.80;;;29.00;85.90;;;;;;5041752;28;20037;-71
2023/07/11 10:50:38;;;;;;;4.20;0.80;;;29.20;86.70;;;;;;5028612;28;20033;-72
2023/07/11 10:53:16;;;;;;;6.30;0.98;;;29.20;86.50;;;;;;5018777;28;20029;-71
2023/07/11 10:55:55;;;;;;;3.30;0.90;;;29.40;86.20;;;;;;5018538;28;20055;-71
2023/07/11 10:58:23;;;;;;;4.95;1.00;;;29.50;85.80;;;;;;5024731;28;20041;-70
2023/07/11 11:01:03;;;;;;;9.10;1.08;;;29.50;85.00;;;;;;5027662;28;20040;-71
2023/07/11 11:03:41;;;;;;;5.13;1.40;;;29.40;85.10;;;;;;5044601;28;20063;-70
2023/07/11 11:06:35;;;;;;;2.92;1.05;;;29.40;86.20;;;;;;5043912;28;20139;-70
2023/07/11 11:09:14;;;;;;;4.50;1.27;;;29.40;85.80;;;;;;5045492;28;20811;-71
2023/07/11 11:12:30;;;;;;;7.97;0.82;;;29.40;87.80;;;;;;5023871;28;20183;-71
2023/07/11 11:15:18;;;;;;;3.42;0.90;;;29.50;88.10;;;;;;4946423;28;20439;-70
2023/07/11 11:17:47;;;;;;;4.07;0.77;;;29.50;87.50;;;;;;4929565;28;20178;-72
2023/07/11 11:20:25;;;;;;;3.65;1.00;;;29.60;86.70;;;;;;5016662;28;20039;-72
2023/07/11 11:23:15;;;;;;;3.72;1.00;;;29.50;86.70;;;;;;5026385;28;20045;-72
2023/07/11 11:26:09;;;;;;;3.85;0.75;;;29.50;88.30;;;;;;5021172;28;20037;-72
2023/07/11 11:28:57;;;;;;;2.75;0.77;;;29.50;88.60;;;;;;5021038;28;20098;-71
2023/07/11 11:31:26;;;;;;;3.58;1.38;;;29.50;87.50;;;;;;5025858;28;20043;-73
2023/07/11 11:34:01;;;;;;;6.83;1.27;;;29.50;87.50;;;;;;5046997;28;20090;-72
2023/07/11 11:36:30;;;;;;;4.97;1.38;;;29.50;88.10;;;;;;5045615;28;20083;-71
2023/07/11 11:39:15;;;;;;;5.25;1.10;;;29.40;88.50;;;;;;5043892;28;20152;-72
2023/07/11 11:41:51;;;;;;;7.32;1.15;;;29.40;88.40;;;;;;5026724;28;20384;-70
2023/07/11 11:44:21;;;;;;;7.28;1.55;;;29.50;88.50;;;;;;5026972;28;20410;-73
2023/07/11 11:46:48;;;;;;;4.97;1.23;;;29.50;88.10;;;;;;5027326;28;20057;-71
2023/07/11 11:49:15;;;;;;;3.67;1.05;;;29.50;89.40;;;;;;5046250;28;20403;-72
2023/07/11 11:51:42;;;;;;;5.10;1.17;;;29.50;88.60;;;;;;5045493;28;20033;-72
2023/07/11 11:54:11;;;;;;;7.72;1.35;;;29.70;89.60;;;;;;5043404;28;20036;-72
2023/07/11 11:56:42;;;;;;;2.78;1.00;;;29.70;87.30;;;;;;5022198;28;20033;-70
2023/07/11 11:59:17;;;;;;;2.58;0.77;;;29.60;90.00;;;;;;5037613;28;20116;-70
2023/07/11 12:02:01;;;;;;;4.93;1.02;;;29.60;88.70;;;;;;5043049;28;20029;-71
2023/07/11 12:04:29;;;;;;;2.78;1.00;;;29.60;88.50;;;;;;5042810;28;20025;-70
2023/07/11 12:07:05;;;;;;;4.55;1.17;;;29.60;87.00;;;;;;5037135;28;20041;-72
2023/07/11 12:09:33;;;;;;;4.25;1.38;;;29.60;88.30;;;;;;5026796;28;20043;-72
2023/07/11 12:12:18;;;;;;;2.58;1.00;;;29.70;89.90;;;;;;5021912;28;20045;-72
2023/07/11 12:14:49;;;;;;;6.13;1.60;;;29.70;90.20;;;;;;5037838;28;20035;-72
2023/07/11 12:17:33;;;;;;;2.05;1.08;;;29.70;90.50;;;;;;5022393;28;20028;-71
2023/07/11 12:20:02;;;;;;;6.78;1.50;;;29.80;87.80;;;;;;5039206;28;20505;-72
2023/07/11 12:22:31;;;;;;;2.75;1.30;;;29.90;88.90;;;;;;5043756;28;20060;-71
2023/07/11 12:25:00;;;;;;;2.70;0.82;;;29.90;88.50;;;;;;5022736;28;20044;-71
2023/07/11 12:27:26;;;;;;;4.07;1.27;;;29.80;89.20;;;;;;5020898;28;20052;-71
2023/07/11 12:29:53;;;;;;;6.97;1.73;;;29.90;88.00;;;;;;5041876;28;20045;-71
2023/07/11 12:32:31;;;;;;;8.82;1.13;;;29.90;87.40;;;;;;5021047;28;20060;-71
2023/07/11 12:35:18;;;;;;;7.43;1.40;;;29.80;88.50;;;;;;5035813;28;20462;-71
2023/07/11 12:38:02;;;;;;;3.92;1.45;;;29.80;89.30;;;;;;5020237;28;20111;-71
2023/07/11 12:40:56;;;;;;;4.97;0.85;;;29.80;90.10;;;;;;5025301;28;20150;-72
2023/07/11 12:43:26;;;;;;;5.15;1.00;;;29.80;89.60;;;;;;5023384;28;20048;-71
2023/07/11 12:46:01;;;;;;;2.75;1.17;;;29.80;90.50;;;;;;5021407;28;20033;-72
2023/07/11 12:48:42;;;;;;;12.00;1.40;;;29.90;89.40;;;;;;5046040;28;20044;-72
2023/07/11 12:51:36;;;;;;;3.53;1.23;;;29.90;89.20;;;;;;5045960;28;20039;-72
2023/07/11 12:54:17;;;;;;;3.92;1.30;;;29.70;88.60;;;;;;5012586;28;20036;-72
2023/07/11 12:56:45;;;;;;;4.70;1.00;;;29.60;89.40;;;;;;5044055;28;20037;-73
2023/07/11 12:59:31;;;;;;;7.25;1.63;;;29.50;90.00;;;;;;5025293;28;20127;-72
2023/07/11 13:01:59;;;;;;;2.90;0.98;;;29.60;89.10;;;;;;5025991;28;20040;-74